sensor_id;sensor_type;location;lat;lon;timestamp;P1;durP1;ratioP1;P2;durP2;ratioP2
7903;SDS011;3997;48.416;8.512;2024-03-25T00:00:32;2.38;;;2.17;;
7903;SDS011;3997;48.416;8.512;2024-03-25T00:02:59;2.05;;;1.85;;
7903;SDS011;3997;48.416;8.512;2024-03-25T00:05:24;2.05;;;1.88;;
7903;SDS011;3997;48.416;8.512;2024-03-25T00:07:51;3.92;;;2.10;;
7903;SDS011;3997;48.416;8.512;2024-03-25T00:10:17;3.60;;;1.90;;
7903;SDS011;3997;48.416;8.512;2024-03-25T00:12:45;3.00;;;1.88;;
7903;SDS011;3997;48.416;8.512;2024-03-25T00:15:11;1.88;;;1.67;;
7903;SDS011;3997;48.416;8.512;2024-03-25T00:17:38;3.13;;;1.73;;
7903;SDS011;3997;48.416;8.512;2024-03-25T00:20:04;4.07;;;1.90;;
7903;SDS011;3997;48.416;8.512;2024-03-25T00:22:34;4.82;;;2.00;;
7903;SDS011;3997;48.416;8.512;2024-03-25T00:24:59;1.77;;;1.65;;
7903;SDS011;3997;48.416;8.512;2024-03-25T00:27:26;2.10;;;1.60;;
7903;SDS011;3997;48.416;8.512;2024-03-25T00:29:51;2.47;;;1.60;;
7903;SDS011;3997;48.416;8.512;2024-03-25T00:32:18;1.88;;;1.75;;
7903;SDS011;3997;48.416;8.512;2024-03-25T00:34:45;1.65;;;1.55;;
7903;SDS011;3997;48.416;8.512;2024-03-25T00:37:11;3.33;;;1.80;;
7903;SDS011;3997;48.416;8.512;2024-03-25T00:39:37;3.58;;;1.77;;
7903;SDS011;3997;48.416;8.512;2024-03-25T00:42:03;2.97;;;1.52;;
7903;SDS011;3997;48.416;8.512;2024-03-25T00:44:29;2.55;;;1.80;;
7903;SDS011;3997;48.416;8.512;2024-03-25T00:46:55;2.65;;;1.92;;
7903;SDS011;3997;48.416;8.512;2024-03-25T00:49:21;2.22;;;1.88;;
7903;SDS011;3997;48.416;8.512;2024-03-25T00:51:49;2.08;;;1.60;;
7903;SDS011;3997;48.416;8.512;2024-03-25T00:54:14;2.35;;;1.65;;
7903;SDS011;3997;48.416;8.512;2024-03-25T00:56:41;2.10;;;1.60;;
7903;SDS011;3997;48.416;8.512;2024-03-25T00:59:06;2.03;;;1.67;;
7903;SDS011;3997;48.416;8.512;2024-03-25T01:01:32;3.53;;;2.10;;
7903;SDS011;3997;48.416;8.512;2024-03-25T01:03:58;3.40;;;2.10;;
7903;SDS011;3997;48.416;8.512;2024-03-25T01:06:24;2.03;;;1.83;;
7903;SDS011;3997;48.416;8.512;2024-03-25T01:08:51;2.05;;;1.33;;
7903;SDS011;3997;48.416;8.512;2024-03-25T01:11:18;2.95;;;1.90;;
7903;SDS011;3997;48.416;8.512;2024-03-25T01:13:43;2.05;;;1.85;;
7903;SDS011;3997;48.416;8.512;2024-03-25T01:16:09;2.10;;;1.60;;
7903;SDS011;3997;48.416;8.512;2024-03-25T01:18:35;3.70;;;2.00;;
7903;SDS011;3997;48.416;8.512;2024-03-25T01:21:02;2.58;;;1.83;;
7903;SDS011;3997;48.416;8.512;2024-03-25T01:23:27;2.25;;;1.65;;
7903;SDS011;3997;48.416;8.512;2024-03-25T01:25:55;2.65;;;1.98;;
7903;SDS011;3997;48.416;8.512;2024-03-25T01:28:20;2.72;;;1.85;;
7903;SDS011;3997;48.416;8.512;2024-03-25T01:30:47;4.45;;;1.90;;
7903;SDS011;3997;48.416;8.512;2024-03-25T01:33:13;3.25;;;1.67;;
7903;SDS011;3997;48.416;8.512;2024-03-25T01:35:40;2.40;;;1.80;;
7903;SDS011;3997;48.416;8.512;2024-03-25T01:38:05;3.30;;;1.60;;
7903;SDS011;3997;48.416;8.512;2024-03-25T01:40:32;2.05;;;1.85;;
7903;SDS011;3997;48.416;8.512;2024-03-25T01:43:00;2.25;;;1.67;;
7903;SDS011;3997;48.416;8.512;2024-03-25T01:45:28;3.33;;;1.50;;
7903;SDS011;3997;48.416;8.512;2024-03-25T01:47:54;3.35;;;2.00;;
7903;SDS011;3997;48.416;8.512;2024-03-25T01:50:22;2.22;;;1.70;;
7903;SDS011;3997;48.416;8.512;2024-03-25T01:52:48;3.15;;;1.75;;
7903;SDS011;3997;48.416;8.512;2024-03-25T01:55:16;1.70;;;1.60;;
7903;SDS011;3997;48.416;8.512;2024-03-25T01:57:42;3.45;;;1.80;;
7903;SDS011;3997;48.416;8.512;2024-03-25T02:00:10;2.05;;;1.63;;
7903;SDS011;3997;48.416;8.512;2024-03-25T02:02:36;3.17;;;1.95;;
7903;SDS011;3997;48.416;8.512;2024-03-25T02:05:06;3.25;;;1.80;;
7903;SDS011;3997;48.416;8.512;2024-03-25T02:07:32;2.95;;;1.88;;
7903;SDS011;3997;48.416;8.512;2024-03-25T02:09:59;2.05;;;1.77;;
7903;SDS011;3997;48.416;8.512;2024-03-25T02:12:25;3.28;;;1.92;;
7903;SDS011;3997;48.416;8.512;2024-03-25T02:14:52;2.47;;;2.22;;
7903;SDS011;3997;48.416;8.512;2024-03-25T02:17:18;2.28;;;1.70;;
7903;SDS011;3997;48.416;8.512;2024-03-25T02:19:45;2.15;;;1.95;;
7903;SDS011;3997;48.416;8.512;2024-03-25T02:22:10;2.58;;;1.67;;
7903;SDS011;3997;48.416;8.512;2024-03-25T02:24:37;3.75;;;2.22;;
7903;SDS011;3997;48.416;8.512;2024-03-25T02:27:05;2.42;;;1.90;;
7903;SDS011;3997;48.416;8.512;2024-03-25T02:29:33;2.97;;;1.95;;
7903;SDS011;3997;48.416;8.512;2024-03-25T02:31:58;3.13;;;1.90;;
7903;SDS011;3997;48.416;8.512;2024-03-25T02:34:25;2.55;;;2.20;;
7903;SDS011;3997;48.416;8.512;2024-03-25T02:36:50;4.65;;;3.38;;
7903;SDS011;3997;48.416;8.512;2024-03-25T02:39:17;2.60;;;2.30;;
7903;SDS011;3997;48.416;8.512;2024-03-25T02:41:43;2.75;;;2.47;;
7903;SDS011;3997;48.416;8.512;2024-03-25T02:44:11;4.80;;;2.00;;
7903;SDS011;3997;48.416;8.512;2024-03-25T02:46:38;4.68;;;2.45;;
7903;SDS011;3997;48.416;8.512;2024-03-25T02:49:05;2.05;;;1.77;;
7903;SDS011;3997;48.416;8.512;2024-03-25T02:51:30;4.45;;;2.40;;
7903;SDS011;3997;48.416;8.512;2024-03-25T02:53:57;3.42;;;2.72;;
7903;SDS011;3997;48.416;8.512;2024-03-25T02:56:22;2.30;;;2.10;;
7903;SDS011;3997;48.416;8.512;2024-03-25T02:58:48;1.80;;;1.70;;
7903;SDS011;3997;48.416;8.512;2024-03-25T03:01:16;4.80;;;2.00;;
7903;SDS011;3997;48.416;8.512;2024-03-25T03:03:42;2.97;;;2.17;;
7903;SDS011;3997;48.416;8.512;2024-03-25T03:06:08;2.00;;;1.80;;
7903;SDS011;3997;48.416;8.512;2024-03-25T03:08:34;2.30;;;2.10;;
7903;SDS011;3997;48.416;8.512;2024-03-25T03:11:00;4.15;;;2.30;;
7903;SDS011;3997;48.416;8.512;2024-03-25T03:13:27;2.33;;;1.88;;
7903;SDS011;3997;48.416;8.512;2024-03-25T03:15:52;4.13;;;2.05;;
7903;SDS011;3997;48.416;8.512;2024-03-25T03:18:20;3.80;;;3.05;;
7903;SDS011;3997;48.416;8.512;2024-03-25T03:20:45;5.13;;;3.10;;
7903;SDS011;3997;48.416;8.512;2024-03-25T03:23:13;5.18;;;2.88;;
7903;SDS011;3997;48.416;8.512;2024-03-25T03:25:40;4.13;;;3.15;;
7903;SDS011;3997;48.416;8.512;2024-03-25T03:28:06;5.15;;;2.33;;
7903;SDS011;3997;48.416;8.512;2024-03-25T03:30:32;3.33;;;2.22;;
7903;SDS011;3997;48.416;8.512;2024-03-25T03:32:58;4.15;;;2.67;;
7903;SDS011;3997;48.416;8.512;2024-03-25T03:35:25;4.63;;;2.70;;
7903;SDS011;3997;48.416;8.512;2024-03-25T03:37:51;3.35;;;1.95;;
7903;SDS011;3997;48.416;8.512;2024-03-25T03:40:17;3.33;;;2.40;;
7903;SDS011;3997;48.416;8.512;2024-03-25T03:42:43;2.28;;;2.03;;
7903;SDS011;3997;48.416;8.512;2024-03-25T03:45:09;2.55;;;2.17;;
7903;SDS011;3997;48.416;8.512;2024-03-25T03:47:35;3.00;;;2.25;;
7903;SDS011;3997;48.416;8.512;2024-03-25T03:50:01;2.40;;;1.92;;
7903;SDS011;3997;48.416;8.512;2024-03-25T03:52:28;2.40;;;2.20;;
7903;SDS011;3997;48.416;8.512;2024-03-25T03:54:54;2.72;;;2.17;;
7903;SDS011;3997;48.416;8.512;2024-03-25T03:57:20;2.50;;;2.05;;
7903;SDS011;3997;48.416;8.512;2024-03-25T03:59:46;3.80;;;2.30;;
7903;SDS011;3997;48.416;8.512;2024-03-25T04:02:12;2.63;;;2.00;;
7903;SDS011;3997;48.416;8.512;2024-03-25T04:04:38;2.20;;;2.00;;
7903;SDS011;3997;48.416;8.512;2024-03-25T04:07:05;2.50;;;1.80;;
7903;SDS011;3997;48.416;8.512;2024-03-25T04:09:32;2.38;;;1.95;;
7903;SDS011;3997;48.416;8.512;2024-03-25T04:11:58;5.97;;;2.22;;
7903;SDS011;3997;48.416;8.512;2024-03-25T04:14:26;3.20;;;2.20;;
7903;SDS011;3997;48.416;8.512;2024-03-25T04:16:52;2.40;;;1.88;;
7903;SDS011;3997;48.416;8.512;2024-03-25T04:19:18;2.47;;;2.15;;
7903;SDS011;3997;48.416;8.512;2024-03-25T04:21:44;4.05;;;1.92;;
7903;SDS011;3997;48.416;8.512;2024-03-25T04:24:13;4.63;;;2.22;;
7903;SDS011;3997;48.416;8.512;2024-03-25T04:26:41;3.22;;;2.17;;
7903;SDS011;3997;48.416;8.512;2024-03-25T04:29:06;2.45;;;2.17;;
7903;SDS011;3997;48.416;8.512;2024-03-25T04:31:32;3.45;;;2.08;;
7903;SDS011;3997;48.416;8.512;2024-03-25T04:34:02;5.65;;;2.70;;
7903;SDS011;3997;48.416;8.512;2024-03-25T04:36:28;4.35;;;1.95;;
7903;SDS011;3997;48.416;8.512;2024-03-25T04:38:55;4.38;;;1.92;;
7903;SDS011;3997;48.416;8.512;2024-03-25T04:41:20;3.03;;;2.58;;
7903;SDS011;3997;48.416;8.512;2024-03-25T04:43:47;2.67;;;1.60;;
7903;SDS011;3997;48.416;8.512;2024-03-25T04:46:12;4.40;;;2.22;;
7903;SDS011;3997;48.416;8.512;2024-03-25T04:48:38;2.83;;;1.88;;
7903;SDS011;3997;48.416;8.512;2024-03-25T04:51:04;4.60;;;2.40;;
7903;SDS011;3997;48.416;8.512;2024-03-25T04:53:32;3.97;;;1.80;;
7903;SDS011;3997;48.416;8.512;2024-03-25T04:55:58;3.83;;;2.17;;
7903;SDS011;3997;48.416;8.512;2024-03-25T04:58:26;3.55;;;2.30;;
7903;SDS011;3997;48.416;8.512;2024-03-25T05:00:55;2.13;;;1.90;;
7903;SDS011;3997;48.416;8.512;2024-03-25T05:03:21;2.20;;;1.95;;
7903;SDS011;3997;48.416;8.512;2024-03-25T05:05:46;3.53;;;2.28;;
7903;SDS011;3997;48.416;8.512;2024-03-25T05:08:12;2.55;;;2.17;;
7903;SDS011;3997;48.416;8.512;2024-03-25T05:10:38;2.30;;;1.98;;
7903;SDS011;3997;48.416;8.512;2024-03-25T05:13:03;4.10;;;2.42;;
7903;SDS011;3997;48.416;8.512;2024-03-25T05:15:29;3.70;;;2.20;;
7903;SDS011;3997;48.416;8.512;2024-03-25T05:17:55;4.40;;;1.85;;
7903;SDS011;3997;48.416;8.512;2024-03-25T05:20:21;3.17;;;1.95;;
7903;SDS011;3997;48.416;8.512;2024-03-25T05:22:46;4.10;;;2.20;;
7903;SDS011;3997;48.416;8.512;2024-03-25T05:25:12;4.22;;;2.15;;
7903;SDS011;3997;48.416;8.512;2024-03-25T05:27:37;3.05;;;2.22;;
7903;SDS011;3997;48.416;8.512;2024-03-25T05:30:03;5.15;;;2.17;;
7903;SDS011;3997;48.416;8.512;2024-03-25T05:32:29;2.33;;;1.52;;
7903;SDS011;3997;48.416;8.512;2024-03-25T05:34:56;2.65;;;2.00;;
7903;SDS011;3997;48.416;8.512;2024-03-25T05:37:21;5.00;;;2.45;;
7903;SDS011;3997;48.416;8.512;2024-03-25T05:39:47;2.45;;;2.22;;
7903;SDS011;3997;48.416;8.512;2024-03-25T05:42:12;3.42;;;2.00;;
7903;SDS011;3997;48.416;8.512;2024-03-25T05:44:38;3.33;;;2.03;;
7903;SDS011;3997;48.416;8.512;2024-03-25T05:47:03;3.47;;;2.03;;
7903;SDS011;3997;48.416;8.512;2024-03-25T05:49:29;5.22;;;2.40;;
7903;SDS011;3997;48.416;8.512;2024-03-25T05:51:56;2.58;;;2.08;;
7903;SDS011;3997;48.416;8.512;2024-03-25T05:54:21;3.70;;;1.95;;
7903;SDS011;3997;48.416;8.512;2024-03-25T05:56:46;3.47;;;2.30;;
7903;SDS011;3997;48.416;8.512;2024-03-25T05:59:12;10.65;;;6.40;;
7903;SDS011;3997;48.416;8.512;2024-03-25T06:01:37;5.45;;;4.60;;
7903;SDS011;3997;48.416;8.512;2024-03-25T06:04:03;10.55;;;7.28;;
7903;SDS011;3997;48.416;8.512;2024-03-25T06:06:28;5.85;;;5.05;;
7903;SDS011;3997;48.416;8.512;2024-03-25T06:08:55;8.63;;;4.65;;
7903;SDS011;3997;48.416;8.512;2024-03-25T06:11:21;6.38;;;3.75;;
7903;SDS011;3997;48.416;8.512;2024-03-25T06:13:46;4.20;;;2.80;;
7903;SDS011;3997;48.416;8.512;2024-03-25T06:16:12;3.35;;;2.30;;
7903;SDS011;3997;48.416;8.512;2024-03-25T06:18:37;2.78;;;2.58;;
7903;SDS011;3997;48.416;8.512;2024-03-25T06:21:03;2.70;;;2.30;;
7903;SDS011;3997;48.416;8.512;2024-03-25T06:23:29;3.15;;;2.13;;
7903;SDS011;3997;48.416;8.512;2024-03-25T06:25:55;3.92;;;2.30;;
7903;SDS011;3997;48.416;8.512;2024-03-25T06:28:21;3.13;;;2.38;;
7903;SDS011;3997;48.416;8.512;2024-03-25T06:30:47;2.10;;;1.90;;
7903;SDS011;3997;48.416;8.512;2024-03-25T06:33:31;2.90;;;2.00;;
7903;SDS011;3997;48.416;8.512;2024-03-25T06:36:14;3.75;;;2.08;;
7903;SDS011;3997;48.416;8.512;2024-03-25T06:38:40;3.65;;;2.45;;
7903;SDS011;3997;48.416;8.512;2024-03-25T06:41:07;3.67;;;2.60;;
7903;SDS011;3997;48.416;8.512;2024-03-25T06:43:32;2.97;;;2.00;;
7903;SDS011;3997;48.416;8.512;2024-03-25T06:45:58;4.15;;;2.00;;
7903;SDS011;3997;48.416;8.512;2024-03-25T06:48:23;2.20;;;1.98;;
7903;SDS011;3997;48.416;8.512;2024-03-25T06:50:52;2.90;;;2.00;;
7903;SDS011;3997;48.416;8.512;2024-03-25T06:53:18;3.42;;;2.10;;
7903;SDS011;3997;48.416;8.512;2024-03-25T06:55:50;2.10;;;1.90;;
7903;SDS011;3997;48.416;8.512;2024-03-25T06:58:17;4.80;;;2.05;;
7903;SDS011;3997;48.416;8.512;2024-03-25T07:00:42;2.97;;;2.63;;
7903;SDS011;3997;48.416;8.512;2024-03-25T07:03:08;3.63;;;2.15;;
7903;SDS011;3997;48.416;8.512;2024-03-25T07:05:33;6.78;;;2.60;;
7903;SDS011;3997;48.416;8.512;2024-03-25T07:07:59;4.38;;;2.63;;
7903;SDS011;3997;48.416;8.512;2024-03-25T07:10:24;2.67;;;2.20;;
7903;SDS011;3997;48.416;8.512;2024-03-25T07:12:50;4.03;;;1.90;;
7903;SDS011;3997;48.416;8.512;2024-03-25T07:15:17;3.30;;;2.13;;
7903;SDS011;3997;48.416;8.512;2024-03-25T07:17:42;2.40;;;2.15;;
7903;SDS011;3997;48.416;8.512;2024-03-25T07:20:08;3.17;;;2.10;;
7903;SDS011;3997;48.416;8.512;2024-03-25T07:22:34;2.28;;;2.05;;
7903;SDS011;3997;48.416;8.512;2024-03-25T07:24:59;4.72;;;2.20;;
7903;SDS011;3997;48.416;8.512;2024-03-25T07:27:25;2.40;;;2.20;;
7903;SDS011;3997;48.416;8.512;2024-03-25T07:29:50;2.10;;;1.75;;
7903;SDS011;3997;48.416;8.512;2024-03-25T07:32:17;3.50;;;2.05;;
7903;SDS011;3997;48.416;8.512;2024-03-25T07:34:42;6.60;;;4.60;;
7903;SDS011;3997;48.416;8.512;2024-03-25T07:37:08;9.00;;;4.50;;
7903;SDS011;3997;48.416;8.512;2024-03-25T07:39:33;4.80;;;2.35;;
7903;SDS011;3997;48.416;8.512;2024-03-25T07:41:59;7.85;;;2.38;;
7903;SDS011;3997;48.416;8.512;2024-03-25T07:44:24;4.50;;;3.10;;
7903;SDS011;3997;48.416;8.512;2024-03-25T07:46:50;10.52;;;5.03;;
7903;SDS011;3997;48.416;8.512;2024-03-25T07:49:17;8.05;;;5.03;;
7903;SDS011;3997;48.416;8.512;2024-03-25T07:51:42;3.50;;;2.92;;
7903;SDS011;3997;48.416;8.512;2024-03-25T07:54:08;5.97;;;3.10;;
7903;SDS011;3997;48.416;8.512;2024-03-25T07:56:34;10.82;;;5.90;;
7903;SDS011;3997;48.416;8.512;2024-03-25T07:58:59;7.05;;;3.22;;
7903;SDS011;3997;48.416;8.512;2024-03-25T08:01:24;2.55;;;1.83;;
7903;SDS011;3997;48.416;8.512;2024-03-25T08:03:50;2.97;;;2.05;;
7903;SDS011;3997;48.416;8.512;2024-03-25T08:06:17;2.42;;;2.13;;
7903;SDS011;3997;48.416;8.512;2024-03-25T08:08:42;2.17;;;1.80;;
7903;SDS011;3997;48.416;8.512;2024-03-25T08:11:08;2.75;;;1.88;;
7903;SDS011;3997;48.416;8.512;2024-03-25T08:13:33;4.40;;;2.10;;
7903;SDS011;3997;48.416;8.512;2024-03-25T08:15:59;3.55;;;1.95;;
7903;SDS011;3997;48.416;8.512;2024-03-25T08:18:24;3.92;;;1.73;;
7903;SDS011;3997;48.416;8.512;2024-03-25T08:20:50;2.67;;;1.60;;
7903;SDS011;3997;48.416;8.512;2024-03-25T08:23:17;1.83;;;1.50;;
7903;SDS011;3997;48.416;8.512;2024-03-25T08:25:42;5.00;;;1.63;;
7903;SDS011;3997;48.416;8.512;2024-03-25T08:28:07;2.67;;;1.90;;
7903;SDS011;3997;48.416;8.512;2024-03-25T08:30:33;3.88;;;1.92;;
7903;SDS011;3997;48.416;8.512;2024-03-25T08:32:58;3.58;;;2.20;;
7903;SDS011;3997;48.416;8.512;2024-03-25T08:35:24;4.15;;;1.70;;
7903;SDS011;3997;48.416;8.512;2024-03-25T08:37:49;3.63;;;1.92;;
7903;SDS011;3997;48.416;8.512;2024-03-25T08:40:16;1.80;;;1.63;;
7903;SDS011;3997;48.416;8.512;2024-03-25T08:42:42;4.93;;;1.85;;
7903;SDS011;3997;48.416;8.512;2024-03-25T08:45:07;4.28;;;1.65;;
7903;SDS011;3997;48.416;8.512;2024-03-25T08:47:33;3.85;;;2.00;;
7903;SDS011;3997;48.416;8.512;2024-03-25T08:49:58;1.90;;;1.48;;
7903;SDS011;3997;48.416;8.512;2024-03-25T08:52:24;1.77;;;1.40;;
7903;SDS011;3997;48.416;8.512;2024-03-25T08:54:49;3.80;;;1.70;;
7903;SDS011;3997;48.416;8.512;2024-03-25T08:57:16;4.45;;;2.05;;
7903;SDS011;3997;48.416;8.512;2024-03-25T08:59:41;2.47;;;1.42;;
7903;SDS011;3997;48.416;8.512;2024-03-25T09:02:07;2.05;;;1.35;;
7903;SDS011;3997;48.416;8.512;2024-03-25T09:04:33;1.23;;;1.02;;
7903;SDS011;3997;48.416;8.512;2024-03-25T09:06:58;2.72;;;1.55;;
7903;SDS011;3997;48.416;8.512;2024-03-25T09:09:24;3.78;;;1.60;;
7903;SDS011;3997;48.416;8.512;2024-03-25T09:12:07;3.05;;;1.40;;
7903;SDS011;3997;48.416;8.512;2024-03-25T09:14:34;1.55;;;1.23;;
7903;SDS011;3997;48.416;8.512;2024-03-25T09:17:00;3.08;;;1.63;;
7903;SDS011;3997;48.416;8.512;2024-03-25T09:19:25;3.90;;;1.60;;
7903;SDS011;3997;48.416;8.512;2024-03-25T09:21:51;3.33;;;1.25;;
7903;SDS011;3997;48.416;8.512;2024-03-25T09:24:16;2.80;;;1.48;;
7903;SDS011;3997;48.416;8.512;2024-03-25T09:26:42;1.30;;;1.10;;
7903;SDS011;3997;48.416;8.512;2024-03-25T09:29:08;3.35;;;1.63;;
7903;SDS011;3997;48.416;8.512;2024-03-25T09:31:34;1.50;;;1.35;;
7903;SDS011;3997;48.416;8.512;2024-03-25T09:34:00;1.58;;;1.10;;
7903;SDS011;3997;48.416;8.512;2024-03-25T09:36:25;2.72;;;1.42;;
7903;SDS011;3997;48.416;8.512;2024-03-25T09:38:51;2.05;;;1.40;;
7903;SDS011;3997;48.416;8.512;2024-03-25T09:41:16;2.58;;;1.58;;
7903;SDS011;3997;48.416;8.512;2024-03-25T09:43:42;2.35;;;1.35;;
7903;SDS011;3997;48.416;8.512;2024-03-25T09:46:08;1.75;;;1.42;;
7903;SDS011;3997;48.416;8.512;2024-03-25T09:48:35;1.58;;;1.33;;
7903;SDS011;3997;48.416;8.512;2024-03-25T09:51:01;3.03;;;1.60;;
7903;SDS011;3997;48.416;8.512;2024-03-25T09:53:27;2.70;;;1.70;;
7903;SDS011;3997;48.416;8.512;2024-03-25T09:55:52;1.45;;;1.20;;
7903;SDS011;3997;48.416;8.512;2024-03-25T09:58:18;1.73;;;1.20;;
7903;SDS011;3997;48.416;8.512;2024-03-25T10:00:44;1.75;;;1.65;;
7903;SDS011;3997;48.416;8.512;2024-03-25T10:03:10;1.60;;;1.50;;
7903;SDS011;3997;48.416;8.512;2024-03-25T10:05:37;2.15;;;1.70;;
7903;SDS011;3997;48.416;8.512;2024-03-25T10:08:03;1.70;;;1.60;;
7903;SDS011;3997;48.416;8.512;2024-03-25T10:10:28;1.85;;;1.70;;
7903;SDS011;3997;48.416;8.512;2024-03-25T10:12:54;2.42;;;1.70;;
7903;SDS011;3997;48.416;8.512;2024-03-25T10:15:20;1.92;;;1.83;;
7903;SDS011;3997;48.416;8.512;2024-03-25T10:17:45;2.45;;;2.20;;
7903;SDS011;3997;48.416;8.512;2024-03-25T10:20:14;2.25;;;2.15;;
7903;SDS011;3997;48.416;8.512;2024-03-25T10:22:44;2.30;;;2.20;;
7903;SDS011;3997;48.416;8.512;2024-03-25T10:25:19;2.40;;;2.20;;
7903;SDS011;3997;48.416;8.512;2024-03-25T10:27:52;4.60;;;2.33;;
7903;SDS011;3997;48.416;8.512;2024-03-25T10:30:18;3.55;;;2.40;;
7903;SDS011;3997;48.416;8.512;2024-03-25T10:32:44;3.55;;;2.50;;
7903;SDS011;3997;48.416;8.512;2024-03-25T10:35:09;2.50;;;2.40;;
7903;SDS011;3997;48.416;8.512;2024-03-25T10:37:35;2.58;;;2.30;;
7903;SDS011;3997;48.416;8.512;2024-03-25T10:40:02;3.08;;;2.55;;
7903;SDS011;3997;48.416;8.512;2024-03-25T10:42:28;3.17;;;2.40;;
7903;SDS011;3997;48.416;8.512;2024-03-25T10:44:56;2.38;;;2.20;;
7903;SDS011;3997;48.416;8.512;2024-03-25T10:47:24;2.40;;;2.30;;
7903;SDS011;3997;48.416;8.512;2024-03-25T10:49:51;4.18;;;3.25;;
7903;SDS011;3997;48.416;8.512;2024-03-25T10:52:17;3.13;;;2.78;;
7903;SDS011;3997;48.416;8.512;2024-03-25T10:54:43;3.00;;;2.63;;
7903;SDS011;3997;48.416;8.512;2024-03-25T10:57:11;2.88;;;2.70;;
7903;SDS011;3997;48.416;8.512;2024-03-25T10:59:37;3.92;;;2.58;;
7903;SDS011;3997;48.416;8.512;2024-03-25T11:02:03;3.03;;;2.47;;
7903;SDS011;3997;48.416;8.512;2024-03-25T11:04:29;2.67;;;2.47;;
7903;SDS011;3997;48.416;8.512;2024-03-25T11:06:55;2.60;;;2.40;;
7903;SDS011;3997;48.416;8.512;2024-03-25T11:09:31;3.35;;;2.53;;
7903;SDS011;3997;48.416;8.512;2024-03-25T11:11:56;2.40;;;2.30;;
7903;SDS011;3997;48.416;8.512;2024-03-25T11:14:26;2.47;;;2.30;;
7903;SDS011;3997;48.416;8.512;2024-03-25T11:16:51;2.83;;;2.60;;
7903;SDS011;3997;48.416;8.512;2024-03-25T11:19:17;2.60;;;2.40;;
7903;SDS011;3997;48.416;8.512;2024-03-25T11:21:43;2.65;;;2.42;;
7903;SDS011;3997;48.416;8.512;2024-03-25T11:24:09;2.40;;;2.22;;
7903;SDS011;3997;48.416;8.512;2024-03-25T11:26:34;3.88;;;2.78;;
7903;SDS011;3997;48.416;8.512;2024-03-25T11:29:00;2.60;;;2.40;;
7903;SDS011;3997;48.416;8.512;2024-03-25T11:31:27;2.67;;;2.58;;
7903;SDS011;3997;48.416;8.512;2024-03-25T11:33:52;2.80;;;2.70;;
7903;SDS011;3997;48.416;8.512;2024-03-25T11:36:18;2.80;;;2.60;;
7903;SDS011;3997;48.416;8.512;2024-03-25T11:38:43;2.78;;;2.58;;
7903;SDS011;3997;48.416;8.512;2024-03-25T11:41:09;2.72;;;2.60;;
7903;SDS011;3997;48.416;8.512;2024-03-25T11:43:35;2.75;;;2.65;;
7903;SDS011;3997;48.416;8.512;2024-03-25T11:46:01;2.70;;;2.53;;
7903;SDS011;3997;48.416;8.512;2024-03-25T11:48:28;3.35;;;3.05;;
7903;SDS011;3997;48.416;8.512;2024-03-25T11:50:54;2.67;;;2.47;;
7903;SDS011;3997;48.416;8.512;2024-03-25T11:53:19;2.85;;;2.65;;
7903;SDS011;3997;48.416;8.512;2024-03-25T11:55:46;3.17;;;2.90;;
7903;SDS011;3997;48.416;8.512;2024-03-25T11:58:11;3.10;;;2.90;;
7903;SDS011;3997;48.416;8.512;2024-03-25T12:00:42;3.20;;;2.90;;
7903;SDS011;3997;48.416;8.512;2024-03-25T12:03:07;3.38;;;3.10;;
7903;SDS011;3997;48.416;8.512;2024-03-25T12:05:34;3.20;;;3.00;;
7903;SDS011;3997;48.416;8.512;2024-03-25T12:08:00;3.75;;;2.95;;
7903;SDS011;3997;48.416;8.512;2024-03-25T12:10:25;2.80;;;2.70;;
7903;SDS011;3997;48.416;8.512;2024-03-25T12:13:09;2.85;;;2.60;;
7903;SDS011;3997;48.416;8.512;2024-03-25T12:15:35;2.90;;;2.63;;
7903;SDS011;3997;48.416;8.512;2024-03-25T12:18:00;3.17;;;2.97;;
7903;SDS011;3997;48.416;8.512;2024-03-25T12:20:26;2.78;;;2.67;;
7903;SDS011;3997;48.416;8.512;2024-03-25T12:22:53;2.97;;;2.78;;
7903;SDS011;3997;48.416;8.512;2024-03-25T12:25:18;2.80;;;2.60;;
7903;SDS011;3997;48.416;8.512;2024-03-25T12:27:45;2.95;;;2.70;;
7903;SDS011;3997;48.416;8.512;2024-03-25T12:30:11;2.40;;;2.30;;
7903;SDS011;3997;48.416;8.512;2024-03-25T12:32:37;2.90;;;2.70;;
7903;SDS011;3997;48.416;8.512;2024-03-25T12:35:03;2.53;;;2.42;;
7903;SDS011;3997;48.416;8.512;2024-03-25T12:37:28;2.50;;;2.40;;
7903;SDS011;3997;48.416;8.512;2024-03-25T12:39:55;2.92;;;2.72;;
7903;SDS011;3997;48.416;8.512;2024-03-25T12:42:21;2.40;;;2.28;;
7903;SDS011;3997;48.416;8.512;2024-03-25T12:44:46;2.30;;;2.20;;
7903;SDS011;3997;48.416;8.512;2024-03-25T12:47:12;2.80;;;2.60;;
7903;SDS011;3997;48.416;8.512;2024-03-25T12:49:37;2.65;;;2.45;;
7903;SDS011;3997;48.416;8.512;2024-03-25T12:52:04;3.08;;;2.85;;
7903;SDS011;3997;48.416;8.512;2024-03-25T12:54:30;3.25;;;2.67;;
7903;SDS011;3997;48.416;8.512;2024-03-25T12:56:56;2.70;;;2.50;;
7903;SDS011;3997;48.416;8.512;2024-03-25T12:59:22;2.83;;;2.45;;
7903;SDS011;3997;48.416;8.512;2024-03-25T13:01:47;3.25;;;2.90;;
7903;SDS011;3997;48.416;8.512;2024-03-25T13:04:13;3.20;;;3.00;;
7903;SDS011;3997;48.416;8.512;2024-03-25T13:06:38;2.70;;;2.60;;
7903;SDS011;3997;48.416;8.512;2024-03-25T13:09:04;3.50;;;3.20;;
7903;SDS011;3997;48.416;8.512;2024-03-25T13:11:29;3.50;;;2.88;;
7903;SDS011;3997;48.416;8.512;2024-03-25T13:13:56;3.08;;;2.88;;
7903;SDS011;3997;48.416;8.512;2024-03-25T13:16:22;2.83;;;2.63;;
7903;SDS011;3997;48.416;8.512;2024-03-25T13:18:47;2.53;;;2.42;;
7903;SDS011;3997;48.416;8.512;2024-03-25T13:21:13;2.80;;;2.60;;
7903;SDS011;3997;48.416;8.512;2024-03-25T13:23:38;2.60;;;2.30;;
7903;SDS011;3997;48.416;8.512;2024-03-25T13:26:03;2.80;;;2.60;;
7903;SDS011;3997;48.416;8.512;2024-03-25T13:28:29;3.53;;;2.70;;
7903;SDS011;3997;48.416;8.512;2024-03-25T13:30:56;3.80;;;3.70;;
7903;SDS011;3997;48.416;8.512;2024-03-25T13:33:21;2.13;;;2.03;;
7903;SDS011;3997;48.416;8.512;2024-03-25T13:35:47;3.17;;;2.28;;
7903;SDS011;3997;48.416;8.512;2024-03-25T13:38:12;2.70;;;2.40;;
7903;SDS011;3997;48.416;8.512;2024-03-25T13:40:38;2.40;;;2.30;;
7903;SDS011;3997;48.416;8.512;2024-03-25T13:43:03;2.50;;;2.40;;
7903;SDS011;3997;48.416;8.512;2024-03-25T13:45:29;2.30;;;2.20;;
7903;SDS011;3997;48.416;8.512;2024-03-25T13:47:56;2.22;;;2.00;;
7903;SDS011;3997;48.416;8.512;2024-03-25T13:50:21;2.28;;;2.08;;
7903;SDS011;3997;48.416;8.512;2024-03-25T13:52:47;2.95;;;2.20;;
7903;SDS011;3997;48.416;8.512;2024-03-25T13:55:12;2.33;;;2.22;;
7903;SDS011;3997;48.416;8.512;2024-03-25T13:57:38;2.30;;;2.10;;
7903;SDS011;3997;48.416;8.512;2024-03-25T14:00:03;2.53;;;2.22;;
7903;SDS011;3997;48.416;8.512;2024-03-25T14:02:29;2.13;;;2.03;;
7903;SDS011;3997;48.416;8.512;2024-03-25T14:04:56;2.10;;;2.00;;
7903;SDS011;3997;48.416;8.512;2024-03-25T14:07:22;2.60;;;2.50;;
7903;SDS011;3997;48.416;8.512;2024-03-25T14:09:47;2.60;;;2.40;;
7903;SDS011;3997;48.416;8.512;2024-03-25T14:12:12;2.17;;;2.08;;
7903;SDS011;3997;48.416;8.512;2024-03-25T14:14:38;2.70;;;2.50;;
7903;SDS011;3997;48.416;8.512;2024-03-25T14:17:04;2.30;;;2.20;;
7903;SDS011;3997;48.416;8.512;2024-03-25T14:19:29;1.98;;;1.88;;
7903;SDS011;3997;48.416;8.512;2024-03-25T14:21:56;2.67;;;2.58;;
7903;SDS011;3997;48.416;8.512;2024-03-25T14:24:21;2.42;;;2.33;;
7903;SDS011;3997;48.416;8.512;2024-03-25T14:26:47;2.75;;;2.55;;
7903;SDS011;3997;48.416;8.512;2024-03-25T14:29:12;2.60;;;2.50;;
7903;SDS011;3997;48.416;8.512;2024-03-25T14:31:38;2.40;;;2.30;;
7903;SDS011;3997;48.416;8.512;2024-03-25T14:34:03;2.30;;;2.10;;
7903;SDS011;3997;48.416;8.512;2024-03-25T14:36:29;3.28;;;2.97;;
7903;SDS011;3997;48.416;8.512;2024-03-25T14:38:56;2.70;;;2.60;;
7903;SDS011;3997;48.416;8.512;2024-03-25T14:41:21;2.22;;;2.13;;
7903;SDS011;3997;48.416;8.512;2024-03-25T14:43:47;2.45;;;2.25;;
7903;SDS011;3997;48.416;8.512;2024-03-25T14:46:12;2.30;;;2.20;;
7903;SDS011;3997;48.416;8.512;2024-03-25T14:48:38;2.45;;;2.30;;
7903;SDS011;3997;48.416;8.512;2024-03-25T14:51:03;2.20;;;2.10;;
7903;SDS011;3997;48.416;8.512;2024-03-25T14:53:29;2.65;;;2.30;;
7903;SDS011;3997;48.416;8.512;2024-03-25T14:55:56;2.72;;;2.53;;
7903;SDS011;3997;48.416;8.512;2024-03-25T14:58:21;2.92;;;2.72;;
7903;SDS011;3997;48.416;8.512;2024-03-25T15:00:47;3.28;;;2.67;;
7903;SDS011;3997;48.416;8.512;2024-03-25T15:03:12;2.40;;;2.30;;
7903;SDS011;3997;48.416;8.512;2024-03-25T15:05:38;2.40;;;2.30;;
7903;SDS011;3997;48.416;8.512;2024-03-25T15:08:03;2.53;;;2.42;;